createdAt,value
2018-08-23T00:01:07.976Z,5.40
2018-08-23T00:03:37.768Z,6.10
2018-08-23T00:06:05.572Z,5.80
2018-08-23T00:08:33.057Z,5.97
2018-08-23T00:11:00.850Z,6.00
2018-08-23T00:13:28.348Z,6.53
2018-08-23T00:15:55.812Z,6.10
2018-08-23T00:18:25.046Z,6.30
2018-08-23T00:20:52.786Z,6.30
2018-08-23T00:23:20.280Z,6.10
2018-08-23T00:25:47.770Z,6.97
2018-08-23T00:28:15.232Z,6.57
2018-08-23T00:30:42.800Z,6.93
2018-08-23T00:33:10.266Z,6.53
2018-08-23T00:35:38.369Z,6.17
2018-08-23T00:38:06.631Z,6.30
2018-08-23T00:40:39.232Z,6.87
2018-08-23T00:43:07.731Z,6.40
2018-08-23T00:45:35.250Z,5.80
2018-08-23T00:48:02.754Z,7.13
2018-08-23T00:51:01.829Z,6.10
2018-08-23T00:53:31.418Z,6.27
2018-08-23T00:56:20.860Z,6.60
2018-08-23T00:58:54.102Z,6.70
2018-08-23T01:01:21.628Z,6.77
2018-08-23T01:03:49.186Z,7.13
2018-08-23T01:06:18.326Z,6.07
2018-08-23T01:08:45.859Z,6.23
2018-08-23T01:11:13.323Z,6.10
2018-08-23T01:13:40.806Z,7.07
2018-08-23T01:16:08.300Z,6.10
2018-08-23T01:18:35.758Z,6.50
2018-08-23T01:21:08.063Z,6.83
2018-08-23T01:23:36.298Z,6.40
2018-08-23T01:26:04.293Z,6.40
2018-08-23T01:28:31.988Z,6.03
2018-08-23T01:31:10.028Z,5.93
2018-08-23T01:33:37.496Z,6.30
2018-08-23T01:36:04.996Z,6.57
2018-08-23T01:38:32.489Z,5.27
2018-08-23T01:41:05.594Z,6.60
2018-08-23T01:43:33.127Z,6.80
2018-08-23T01:46:00.575Z,6.67
2018-08-23T01:48:28.055Z,6.27
2018-08-23T01:50:55.541Z,6.83
2018-08-23T01:53:27.865Z,5.53
2018-08-23T01:55:55.338Z,6.10
2018-08-23T01:58:22.796Z,5.70
2018-08-23T02:01:25.901Z,6.70
2018-08-23T02:03:53.345Z,6.03
2018-08-23T02:06:20.843Z,6.10
2018-08-23T02:08:48.330Z,6.47
2018-08-23T02:11:15.861Z,6.63
2018-08-23T02:13:47.569Z,6.13
2018-08-23T02:16:15.055Z,6.97
2018-08-23T02:18:42.557Z,6.27
2018-08-23T02:21:10.711Z,7.20
2018-08-23T02:23:42.879Z,6.20
2018-08-23T02:26:10.447Z,6.67
2018-08-23T02:28:37.968Z,8.10
2018-08-23T02:31:05.467Z,8.13
2018-08-23T02:33:32.943Z,7.50
2018-08-23T02:36:22.450Z,8.10
2018-08-23T02:39:08.344Z,9.23
2018-08-23T02:41:35.849Z,8.37
2018-08-23T02:44:03.312Z,9.53
2018-08-23T02:46:32.186Z,10.27
2018-08-23T02:48:59.739Z,10.43
2018-08-23T02:51:35.924Z,10.53
2018-08-23T02:54:03.478Z,10.20
2018-08-23T02:56:30.993Z,10.90
2018-08-23T02:59:04.194Z,10.40
2018-08-23T03:01:32.914Z,10.70
2018-08-23T03:04:14.801Z,9.10
2018-08-23T03:06:49.004Z,10.10
2018-08-23T03:09:18.631Z,10.17
2018-08-23T03:11:48.121Z,9.73
2018-08-23T03:14:16.582Z,9.90
2018-08-23T03:16:49.949Z,9.00
2018-08-23T03:19:17.448Z,8.73
2018-08-23T03:21:45.260Z,9.63
2018-08-23T03:24:12.840Z,9.53
2018-08-23T03:26:40.432Z,9.00
2018-08-23T03:29:08.190Z,8.87
2018-08-23T03:31:35.666Z,8.20
2018-08-23T03:34:03.150Z,8.97
2018-08-23T03:36:30.646Z,8.80
2018-08-23T03:38:58.179Z,7.17
2018-08-23T03:41:25.636Z,6.60
2018-08-23T03:43:53.083Z,7.13
2018-08-23T03:46:20.562Z,6.57
2018-08-23T03:48:58.438Z,7.20
2018-08-23T03:51:26.012Z,6.40
2018-08-23T03:53:59.448Z,6.50
2018-08-23T03:56:27.022Z,7.37
2018-08-23T03:58:54.485Z,6.07
2018-08-23T04:01:21.952Z,6.97
2018-08-23T04:03:49.489Z,7.07
2018-08-23T04:06:28.274Z,6.37
2018-08-23T04:08:55.740Z,6.70
2018-08-23T04:11:23.201Z,6.97
2018-08-23T04:13:50.660Z,7.13
2018-08-23T04:16:26.390Z,6.53
2018-08-23T04:18:54.284Z,8.07
2018-08-23T04:21:21.753Z,7.10
2018-08-23T04:23:49.232Z,7.77
2018-08-23T04:26:16.906Z,7.67
2018-08-23T04:28:44.374Z,7.47
2018-08-23T04:31:11.854Z,7.33
2018-08-23T04:33:39.312Z,7.77
2018-08-23T04:36:12.862Z,8.90
2018-08-23T04:38:44.964Z,8.47
2018-08-23T04:41:12.572Z,8.60
2018-08-23T04:43:40.389Z,8.33
2018-08-23T04:46:12.411Z,9.13
2018-08-23T04:48:39.962Z,8.23
2018-08-23T04:51:07.404Z,8.60
2018-08-23T04:53:34.846Z,8.30
2018-08-23T04:56:02.347Z,8.60
2018-08-23T04:58:29.853Z,8.83
2018-08-23T05:00:57.377Z,8.83
2018-08-23T05:03:24.919Z,8.90
2018-08-23T05:05:52.374Z,8.20
2018-08-23T05:08:19.858Z,8.77
2018-08-23T05:10:47.329Z,8.53
2018-08-23T05:13:14.778Z,8.53
2018-08-23T05:15:42.261Z,9.67
2018-08-23T05:18:09.763Z,8.90
2018-08-23T05:20:37.270Z,8.60
2018-08-23T05:23:04.952Z,9.37
2018-08-23T05:25:32.441Z,8.73
2018-08-23T05:28:19.492Z,8.93
2018-08-23T05:30:47.829Z,9.17
2018-08-23T05:33:20.493Z,8.80
2018-08-23T05:35:48.045Z,8.57
2018-08-23T05:38:16.303Z,9.00
2018-08-23T05:40:44.595Z,7.97
2018-08-23T05:43:13.179Z,8.63
2018-08-23T05:45:47.311Z,8.30
2018-08-23T05:48:35.281Z,7.23
2018-08-23T05:51:05.031Z,8.73
2018-08-23T05:53:32.655Z,8.23
2018-08-23T05:56:00.921Z,10.23
2018-08-23T05:58:30.901Z,8.00
2018-08-23T06:00:58.405Z,9.43
2018-08-23T06:03:25.895Z,8.67
2018-08-23T06:05:54.355Z,8.47
2018-08-23T06:08:21.904Z,9.03
2018-08-23T06:10:55.139Z,8.20
2018-08-23T06:13:22.599Z,8.37
2018-08-23T06:15:52.014Z,7.50
2018-08-23T06:18:20.283Z,7.47
2018-08-23T06:20:47.778Z,7.80
2018-08-23T06:23:16.133Z,8.43
2018-08-23T06:25:44.314Z,7.73
2018-08-23T06:28:15.225Z,6.70
2018-08-23T06:30:43.069Z,6.23
2018-08-23T06:33:10.728Z,7.10
2018-08-23T06:35:43.234Z,7.17
2018-08-23T06:38:10.677Z,6.80
2018-08-23T06:40:38.177Z,7.13
2018-08-23T06:43:05.661Z,6.73
2018-08-23T06:45:33.157Z,6.33
2018-08-23T06:48:02.235Z,5.80
2018-08-23T06:50:29.731Z,7.53
2018-08-23T06:52:57.199Z,6.87
2018-08-23T06:55:30.232Z,5.90
2018-08-23T06:57:58.631Z,5.97
2018-08-23T07:00:26.680Z,6.70
2018-08-23T07:02:54.267Z,6.47
2018-08-23T07:05:21.894Z,6.80
2018-08-23T07:07:49.668Z,7.07
2018-08-23T07:10:17.180Z,6.80
2018-08-23T07:12:44.740Z,6.47
2018-08-23T07:15:12.348Z,7.20
2018-08-23T07:17:39.958Z,7.00
2018-08-23T07:20:13.760Z,7.33
2018-08-23T07:22:41.310Z,6.83
2018-08-23T07:25:11.561Z,6.93
2018-08-23T07:27:39.104Z,6.80
2018-08-23T07:30:11.819Z,7.57
2018-08-23T07:32:40.562Z,6.83
2018-08-23T07:35:12.008Z,7.50
2018-08-23T07:37:40.838Z,7.40
2018-08-23T07:40:13.774Z,6.43
2018-08-23T07:42:42.453Z,6.57
2018-08-23T07:45:10.389Z,7.13
2018-08-23T07:48:08.882Z,7.10
2018-08-23T07:50:36.357Z,6.57
2018-08-23T07:53:04.455Z,7.33
2018-08-23T07:55:31.944Z,5.47
2018-08-23T07:57:59.440Z,6.00
2018-08-23T08:00:29.762Z,6.03
2018-08-23T08:02:57.340Z,6.20
2018-08-23T08:05:29.185Z,6.43
2018-08-23T08:07:56.731Z,5.23
2018-08-23T08:10:28.768Z,5.80
2018-08-23T08:12:56.286Z,6.60
2018-08-23T08:15:24.005Z,5.87
2018-08-23T08:17:51.344Z,5.83
2018-08-23T08:20:18.916Z,5.20
2018-08-23T08:22:46.478Z,5.67
2018-08-23T08:25:17.544Z,5.70
2018-08-23T08:27:45.394Z,5.47
2018-08-23T08:30:15.296Z,6.60
2018-08-23T08:32:43.266Z,6.03
2018-08-23T08:35:14.122Z,6.97
2018-08-23T08:37:41.941Z,6.30
2018-08-23T08:40:12.810Z,6.10
2018-08-23T08:42:40.354Z,6.00
2018-08-23T08:45:11.642Z,6.87
2018-08-23T08:47:40.108Z,6.37
2018-08-23T08:50:07.667Z,6.30
2018-08-23T08:52:35.211Z,5.60
2018-08-23T08:55:03.347Z,5.17
2018-08-23T08:57:32.257Z,5.23
2018-08-23T09:00:00.173Z,5.63
2018-08-23T09:02:29.566Z,6.13
2018-08-23T09:04:57.033Z,6.40
2018-08-23T09:07:31.761Z,5.60
2018-08-23T09:09:59.329Z,5.67
2018-08-23T09:12:28.977Z,6.10
2018-08-23T09:14:56.550Z,6.07
2018-08-23T09:17:40.645Z,6.07
2018-08-23T09:20:10.960Z,6.20
2018-08-23T09:22:54.421Z,6.93
2018-08-23T09:25:22.986Z,5.23
2018-08-23T09:27:51.125Z,4.63
2018-08-23T09:30:24.177Z,5.17
2018-08-23T09:32:51.681Z,4.07
2018-08-23T09:35:19.937Z,4.13
2018-08-23T09:37:51.181Z,4.00
2018-08-23T09:40:18.640Z,3.63
2018-08-23T09:42:46.141Z,4.70
2018-08-23T09:45:14.887Z,2.67
2018-08-23T09:47:42.491Z,2.77
2018-08-23T09:50:10.103Z,2.97
2018-08-23T09:52:38.503Z,2.70
2018-08-23T09:55:06.757Z,2.80
2018-08-23T09:57:35.574Z,2.47
2018-08-23T10:00:05.735Z,1.93
2018-08-23T10:02:38.946Z,2.27
2018-08-23T10:05:11.009Z,2.20
2018-08-23T10:07:44.201Z,1.93
2018-08-23T10:10:17.361Z,2.33
2018-08-23T10:12:50.525Z,2.63
2018-08-23T10:15:23.701Z,2.20
2018-08-23T10:17:56.923Z,2.17
2018-08-23T10:20:30.124Z,2.33
2018-08-23T10:23:03.340Z,2.20
2018-08-23T10:25:37.708Z,2.20
2018-08-23T10:28:06.789Z,2.33
2018-08-23T10:30:34.293Z,2.17
2018-08-23T10:33:01.888Z,2.10
2018-08-23T10:35:29.474Z,2.40
2018-08-23T10:37:56.964Z,2.40
2018-08-23T10:40:24.485Z,1.90
2018-08-23T10:42:52.007Z,2.20
2018-08-23T10:45:19.617Z,2.63
2018-08-23T10:47:52.638Z,1.77
2018-08-23T10:50:20.196Z,2.17
2018-08-23T10:52:47.830Z,2.00
2018-08-23T10:55:15.357Z,2.00
2018-08-23T10:57:42.875Z,2.17
2018-08-23T11:00:10.382Z,1.80
2018-08-23T11:02:37.901Z,1.70
2018-08-23T11:05:05.434Z,1.73
2018-08-23T11:07:38.549Z,1.83
2018-08-23T11:10:11.683Z,1.93
2018-08-23T11:12:44.815Z,1.20
2018-08-23T11:15:17.927Z,1.27
2018-08-23T11:17:51.125Z,1.43
2018-08-23T11:20:24.317Z,1.80
2018-08-23T11:22:51.807Z,1.47
2018-08-23T11:25:19.603Z,1.13
2018-08-23T11:27:47.087Z,1.13
2018-08-23T11:30:14.593Z,1.00
2018-08-23T11:32:42.131Z,1.20
2018-08-23T11:35:09.672Z,0.93
2018-08-23T11:37:37.145Z,1.07
2018-08-23T11:40:04.690Z,1.00
2018-08-23T11:42:32.233Z,0.80
2018-08-23T11:44:59.964Z,0.80
2018-08-23T11:47:27.484Z,0.90
2018-08-23T11:49:54.977Z,0.70
2018-08-23T11:52:22.478Z,0.80
2018-08-23T11:54:50.029Z,0.87
2018-08-23T11:57:17.521Z,1.10
2018-08-23T11:59:47.377Z,1.30
2018-08-23T12:02:15.866Z,1.00
2018-08-23T12:04:43.364Z,1.03
2018-08-23T12:07:10.836Z,1.00
2018-08-23T12:09:38.329Z,1.23
2018-08-23T12:12:05.844Z,0.90
2018-08-23T12:14:33.369Z,0.83
2018-08-23T12:17:00.859Z,1.03
2018-08-23T12:19:28.339Z,1.13
2018-08-23T12:21:55.860Z,1.13
2018-08-23T12:24:23.459Z,1.43
2018-08-23T12:26:50.947Z,1.00
2018-08-23T12:29:18.439Z,1.10
2018-08-23T12:31:45.970Z,1.70
2018-08-23T12:34:18.004Z,1.20
2018-08-23T12:36:51.057Z,1.23
2018-08-23T12:39:24.252Z,0.93
2018-08-23T12:41:57.389Z,1.13
2018-08-23T12:44:24.876Z,1.37
2018-08-23T12:46:56.930Z,1.30
2018-08-23T12:49:24.538Z,1.20
2018-08-23T12:51:51.952Z,1.27
2018-08-23T12:54:19.438Z,1.20
2018-08-23T12:56:46.962Z,1.40
2018-08-23T12:59:14.444Z,1.00
2018-08-23T13:01:41.929Z,1.50
2018-08-23T13:04:09.559Z,1.53
2018-08-23T13:06:37.005Z,1.17
2018-08-23T13:09:05.479Z,1.20
2018-08-23T13:11:32.935Z,1.17
2018-08-23T13:14:00.442Z,1.23
2018-08-23T13:16:27.923Z,1.33
2018-08-23T13:18:55.436Z,1.13
2018-08-23T13:21:22.932Z,1.10
2018-08-23T13:23:50.419Z,1.10
2018-08-23T13:26:17.918Z,0.80
2018-08-23T13:28:45.414Z,1.03
2018-08-23T13:31:12.905Z,1.00
2018-08-23T13:33:40.416Z,1.17
2018-08-23T13:36:08.165Z,1.00
2018-08-23T13:38:35.676Z,0.93
2018-08-23T13:41:03.202Z,1.20
2018-08-23T13:43:30.730Z,1.13
2018-08-23T13:45:58.235Z,0.93
2018-08-23T13:48:25.781Z,1.10
2018-08-23T13:50:53.212Z,0.90
2018-08-23T13:53:20.657Z,1.20
2018-08-23T13:55:48.152Z,1.07
2018-08-23T13:58:15.738Z,0.90
2018-08-23T14:00:43.268Z,1.10
2018-08-23T14:03:11.374Z,0.77
2018-08-23T14:05:39.940Z,1.07
2018-08-23T14:08:08.100Z,0.90
2018-08-23T14:10:35.683Z,1.03
2018-08-23T14:13:03.443Z,0.80
2018-08-23T14:15:36.720Z,0.60
2018-08-23T14:18:04.298Z,0.80
2018-08-23T14:20:31.873Z,0.60
2018-08-23T14:22:59.361Z,1.10
2018-08-23T14:25:26.914Z,0.90
2018-08-23T14:27:54.728Z,0.70
2018-08-23T14:30:22.265Z,0.83
2018-08-23T14:32:49.820Z,0.60
2018-08-23T14:35:17.301Z,1.00
2018-08-23T14:37:44.841Z,0.70
2018-08-23T14:40:14.089Z,0.90
2018-08-23T14:42:41.628Z,0.90
2018-08-23T14:45:09.109Z,0.90
2018-08-23T14:47:42.294Z,0.80
2018-08-23T14:50:09.837Z,0.63
2018-08-23T14:52:37.384Z,0.70
2018-08-23T14:55:05.060Z,1.00
2018-08-23T14:57:33.775Z,0.97
2018-08-23T15:00:01.317Z,0.83
2018-08-23T15:02:28.858Z,0.70
2018-08-23T15:04:56.372Z,0.90
2018-08-23T15:07:23.874Z,0.70
2018-08-23T15:09:51.392Z,0.70
2018-08-23T15:12:18.890Z,0.70
2018-08-23T15:14:46.366Z,0.70
2018-08-23T15:17:13.852Z,0.50
2018-08-23T15:19:41.349Z,0.80
2018-08-23T15:22:09.642Z,0.90
2018-08-23T15:24:37.196Z,0.80
2018-08-23T15:27:05.078Z,0.70
2018-08-23T15:29:32.479Z,0.70
2018-08-23T15:32:00.016Z,0.60
2018-08-23T15:34:27.509Z,0.50
2018-08-23T15:36:55.008Z,0.67
2018-08-23T15:39:22.552Z,0.80
2018-08-23T15:41:50.029Z,0.70
2018-08-23T15:44:17.483Z,0.53
2018-08-23T15:46:46.247Z,0.93
2018-08-23T15:49:13.995Z,0.70
2018-08-23T15:51:42.493Z,0.50
2018-08-23T15:54:10.349Z,0.60
2018-08-23T15:56:38.529Z,0.40
2018-08-23T15:59:06.045Z,0.63
2018-08-23T16:01:34.079Z,1.17
2018-08-23T16:04:01.802Z,0.60
2018-08-23T16:06:29.359Z,1.23
2018-08-23T16:08:56.869Z,0.53
2018-08-23T16:11:25.221Z,0.60
2018-08-23T16:13:53.385Z,0.50
2018-08-23T16:16:26.591Z,0.80
2018-08-23T16:18:59.689Z,0.57
2018-08-23T16:21:33.133Z,0.60
2018-08-23T16:24:00.651Z,0.40
2018-08-23T16:26:33.892Z,0.60
2018-08-23T16:29:01.486Z,0.80
2018-08-23T16:31:29.214Z,0.50
2018-08-23T16:33:56.737Z,0.50
2018-08-23T16:36:24.456Z,0.60
2018-08-23T16:38:51.980Z,0.77
2018-08-23T16:41:19.526Z,0.30
2018-08-23T16:43:47.105Z,0.60
2018-08-23T16:46:14.699Z,0.60
2018-08-23T16:48:42.285Z,0.60
2018-08-23T16:51:09.829Z,0.70
2018-08-23T16:53:37.340Z,0.70
2018-08-23T16:56:04.885Z,0.47
2018-08-23T16:58:32.417Z,0.50
2018-08-23T17:00:59.895Z,0.57
2018-08-23T17:03:27.405Z,0.70
2018-08-23T17:05:54.947Z,0.60
2018-08-23T17:08:22.477Z,0.50
2018-08-23T17:10:50.040Z,0.43
2018-08-23T17:13:23.200Z,0.50
2018-08-23T17:15:56.440Z,0.70
2018-08-23T17:18:23.985Z,0.50
2018-08-23T17:20:51.504Z,0.60
2018-08-23T17:23:19.125Z,0.53
2018-08-23T17:25:46.813Z,0.40
2018-08-23T17:28:14.566Z,0.50
2018-08-23T17:30:42.182Z,0.70
2018-08-23T17:33:09.648Z,0.70
2018-08-23T17:35:37.180Z,0.50
2018-08-23T17:38:04.717Z,0.60
2018-08-23T17:40:32.269Z,0.50
2018-08-23T17:42:59.821Z,0.53
2018-08-23T17:45:27.370Z,0.60
2018-08-23T17:47:54.934Z,0.67
2018-08-23T17:50:22.458Z,0.40
2018-08-23T17:52:49.970Z,0.80
2018-08-23T17:55:17.557Z,0.70
2018-08-23T17:57:45.119Z,0.50
2018-08-23T18:00:12.686Z,0.67
2018-08-23T18:02:40.242Z,0.60
2018-08-23T18:05:07.764Z,0.60
2018-08-23T18:07:35.910Z,0.50
2018-08-23T18:10:03.576Z,0.47
2018-08-23T18:12:31.135Z,0.70
2018-08-23T18:14:58.610Z,0.63
2018-08-23T18:17:26.192Z,0.50
2018-08-23T18:19:53.905Z,0.50
2018-08-23T18:22:21.537Z,0.57
2018-08-23T18:24:49.021Z,0.53
2018-08-23T18:27:16.498Z,0.53
2018-08-23T18:29:44.055Z,0.60
2018-08-23T18:32:11.588Z,0.50
2018-08-23T18:34:39.156Z,0.43
2018-08-23T18:37:06.730Z,0.50
2018-08-23T18:39:34.702Z,0.57
2018-08-23T18:42:02.258Z,0.50
2018-08-23T18:44:29.784Z,0.43
2018-08-23T18:46:57.309Z,0.57
2018-08-23T18:49:24.853Z,0.67
2018-08-23T18:51:52.416Z,0.67
2018-08-23T18:54:19.953Z,0.80
2018-08-23T18:56:47.479Z,0.80
2018-08-23T18:59:15.220Z,0.70
2018-08-23T19:01:42.686Z,0.87
2018-08-23T19:04:10.276Z,0.50
2018-08-23T19:06:37.803Z,0.50
2018-08-23T19:09:08.116Z,0.73
2018-08-23T19:11:35.619Z,0.60
2018-08-23T19:14:03.134Z,0.70
2018-08-23T19:16:36.468Z,0.60
2018-08-23T19:19:04.137Z,0.50
2018-08-23T19:21:31.558Z,0.80
2018-08-23T19:23:59.039Z,0.80
2018-08-23T19:26:26.560Z,0.60
2018-08-23T19:28:54.078Z,0.63
2018-08-23T19:31:21.585Z,0.83
2018-08-23T19:33:49.095Z,0.83
2018-08-23T19:36:16.617Z,0.70
2018-08-23T19:38:44.154Z,0.67
2018-08-23T19:41:11.700Z,0.90
2018-08-23T19:43:39.194Z,0.83
2018-08-23T19:46:12.332Z,0.70
2018-08-23T19:48:40.419Z,0.83
2018-08-23T19:51:08.047Z,0.70
2018-08-23T19:53:35.805Z,0.80
2018-08-23T19:56:03.342Z,0.90
2018-08-23T19:58:31.240Z,0.73
2018-08-23T20:00:58.757Z,0.83
2018-08-23T20:03:26.274Z,1.00
2018-08-23T20:05:53.772Z,1.07
2018-08-23T20:08:21.304Z,0.70
2018-08-23T20:10:48.872Z,0.80
2018-08-23T20:13:16.349Z,0.70
2018-08-23T20:15:43.864Z,0.77
2018-08-23T20:18:12.534Z,0.80
2018-08-23T20:20:40.326Z,0.77
2018-08-23T20:23:07.950Z,0.60
2018-08-23T20:25:35.680Z,0.70
2018-08-23T20:28:03.356Z,0.70
2018-08-23T20:30:31.666Z,0.40
2018-08-23T20:32:59.146Z,0.90
2018-08-23T20:35:26.964Z,0.70
2018-08-23T20:37:54.803Z,0.83
2018-08-23T20:40:22.318Z,0.60
2018-08-23T20:42:50.168Z,0.60
2018-08-23T20:45:17.995Z,0.70
2018-08-23T20:47:45.611Z,0.60
2018-08-23T20:50:13.487Z,0.73
2018-08-23T20:52:41.540Z,0.43
2018-08-23T20:55:09.151Z,0.90
2018-08-23T20:57:36.757Z,0.57
2018-08-23T21:00:04.830Z,0.50
2018-08-23T21:02:32.729Z,0.67
2018-08-23T21:05:00.227Z,0.50
2018-08-23T21:07:27.741Z,0.50
2018-08-23T21:09:55.250Z,0.50
2018-08-23T21:12:22.726Z,0.57
2018-08-23T21:14:50.214Z,1.00
2018-08-23T21:17:17.717Z,1.00
2018-08-23T21:19:45.221Z,0.63
2018-08-23T21:22:12.745Z,0.77
2018-08-23T21:24:40.274Z,0.77
2018-08-23T21:27:07.767Z,0.70
2018-08-23T21:29:35.279Z,0.63
2018-08-23T21:32:02.901Z,0.90
2018-08-23T21:34:30.369Z,0.77
2018-08-23T21:36:57.875Z,0.90
2018-08-23T21:39:25.395Z,0.77
2018-08-23T21:41:52.937Z,0.80
2018-08-23T21:44:20.427Z,0.83
2018-08-23T21:46:47.969Z,1.00
2018-08-23T21:49:15.479Z,0.80
2018-08-23T21:51:42.980Z,0.70
2018-08-23T23:54:53.549Z,1.40
2018-08-23T23:57:20.989Z,1.20
